To NAV CANADA Home Page Login to a new session Search on AWWS site Feedback and Comments Disclaimer Vers la page française équivalente Tips FAQ What's new on the site To the Forecasts and Observations / NOTAM section To "File a Flight Plan" website Publications and other links Update of the User's profile FIC Telephone Numbers My Weather Data Folder Route Weather Data Regional Weather Data Local Weather Data To the Forecasts and Observations / NOTAM section
Request Generated 06/26/2017 at 03:36:23 UTC . Weather information available at that time is displayed.

METAR/TAF

LOURDES-DE-BLANC-SABLON/QC    

METAR CYBX 260300Z 17004KT 15SM FEW030 08/06 A2964 RMK SC2 SLP041=
METAR CYBX 260200Z VRB02KT 15SM FEW030 07/05 A2964 RMK SC1 SLP039=
METAR CYBX 260100Z VRB02KT 15SM FEW030 08/06 A2962 RMK SC1 SLP033=

TAF CYBX 260138Z 2602/2614 23005KT P6SM FEW030
RMK NXT FCST BY 260800Z=
Your time UTC time
Weather data provided by Environment Canada and NAV CANADA